Terminal Aerodrome Forecast
Issued by NWS

Home | Current Version | Previous Version | Text Only | Print | Product List | Glossary On
Versions: 1 2 3 4 5 6 7 8 9 10 11 12
000
FTUS45 KRIW 271700
TAFLND
TAF
KLND 271720Z 2718/2818 23007KT P6SM FEW050 SCT080
     FM271900 VRB05KT P6SM VCSH SCT040 BKN080
     FM272300 VRB12G18KT P6SM VCTS SCT040 BKN070CB
     FM280300 23007KT P6SM VCSH BKN070
     FM280700 VRB06KT P6SM SCT070=

USA.gov is the U.S. government's official web portal to all federal, state and local government web resources and services.